createdAt,value
2019-01-13T00:00:17.187Z,1003.30
2019-01-13T00:01:17.212Z,1003.32
2019-01-13T00:02:17.233Z,1003.36
2019-01-13T00:03:17.257Z,1003.43
2019-01-13T00:04:17.283Z,1003.41
2019-01-13T00:05:17.314Z,1003.45
2019-01-13T00:06:17.329Z,1003.43
2019-01-13T00:07:17.355Z,1003.37
2019-01-13T00:08:17.377Z,1003.35
2019-01-13T00:09:17.400Z,1003.36
2019-01-13T00:10:17.426Z,1003.45
2019-01-13T00:11:17.450Z,1003.39
2019-01-13T00:12:17.473Z,1003.36
2019-01-13T00:13:17.498Z,1003.36
2019-01-13T00:14:17.518Z,1003.37
2019-01-13T00:15:17.546Z,1003.40
2019-01-13T00:16:17.566Z,1003.48
2019-01-13T00:17:17.593Z,1003.40
2019-01-13T00:18:17.614Z,1003.38
2019-01-13T00:19:17.641Z,1003.40
2019-01-13T00:20:17.664Z,1003.43
2019-01-13T00:21:17.685Z,1003.42
2019-01-13T00:22:17.712Z,1003.44
2019-01-13T00:23:17.733Z,1003.44
2019-01-13T00:24:17.758Z,1003.46
2019-01-13T00:25:17.783Z,1003.45
2019-01-13T00:26:17.805Z,1003.46
2019-01-13T00:27:17.831Z,1003.45
2019-01-13T00:28:17.852Z,1003.49
2019-01-13T00:29:17.877Z,1003.45
2019-01-13T00:30:19.442Z,1003.51
2019-01-13T00:31:17.927Z,1003.54
2019-01-13T00:32:17.947Z,1003.52
2019-01-13T00:33:17.972Z,1003.50
2019-01-13T00:34:18.000Z,1003.54
2019-01-13T00:35:18.025Z,1003.57
2019-01-13T00:36:18.048Z,1003.50
2019-01-13T00:37:18.067Z,1003.58
2019-01-13T00:38:18.090Z,1003.47
2019-01-13T00:39:18.114Z,1003.49
2019-01-13T00:40:18.140Z,1003.48
2019-01-13T00:41:18.166Z,1003.46
2019-01-13T00:42:18.187Z,1003.51
2019-01-13T00:43:18.211Z,1003.43
2019-01-13T00:44:18.234Z,1003.43
2019-01-13T00:45:18.258Z,1003.40
2019-01-13T00:46:18.282Z,1003.33
2019-01-13T00:47:18.308Z,1003.39
2019-01-13T00:48:18.333Z,1003.37
2019-01-13T00:49:18.353Z,1003.37
2019-01-13T00:50:18.377Z,1003.33
2019-01-13T00:51:18.403Z,1003.31
2019-01-13T00:52:18.427Z,1003.35
2019-01-13T00:53:18.451Z,1003.27
2019-01-13T00:54:18.474Z,1003.26
2019-01-13T00:55:18.499Z,1003.29
2019-01-13T00:56:18.522Z,1003.28
2019-01-13T00:57:18.546Z,1003.34
2019-01-13T00:58:18.571Z,1003.31
2019-01-13T00:59:18.593Z,1003.25
2019-01-13T01:00:18.619Z,1003.27
2019-01-13T01:01:18.640Z,1003.23
2019-01-13T01:02:18.666Z,1003.25
2019-01-13T01:03:18.690Z,1003.27
2019-01-13T01:04:18.712Z,1003.26
2019-01-13T01:05:18.796Z,1003.25
2019-01-13T01:06:18.762Z,1003.32
2019-01-13T01:07:18.784Z,1003.30
2019-01-13T01:08:18.810Z,1003.26
2019-01-13T01:09:18.831Z,1003.28
2019-01-13T01:10:18.859Z,1003.33
2019-01-13T01:11:18.880Z,1003.24
2019-01-13T01:12:18.903Z,1003.25
2019-01-13T01:13:18.929Z,1003.22
2019-01-13T01:14:18.955Z,1003.20
2019-01-13T01:15:18.976Z,1003.21
2019-01-13T01:16:18.999Z,1003.22
2019-01-13T01:17:19.022Z,1003.20
2019-01-13T01:18:19.049Z,1003.20
2019-01-13T01:19:19.071Z,1003.18
2019-01-13T01:20:19.097Z,1003.11
2019-01-13T01:21:19.118Z,1003.07
2019-01-13T01:22:19.145Z,1003.05
2019-01-13T01:23:19.166Z,1003.03
2019-01-13T01:24:19.193Z,1003.03
2019-01-13T01:25:19.217Z,1003.06
2019-01-13T01:26:19.240Z,1003.09
2019-01-13T01:27:19.267Z,1003.01
2019-01-13T01:28:19.289Z,1003.00
2019-01-13T01:29:19.310Z,1003.00
2019-01-13T01:30:19.337Z,1003.00
2019-01-13T01:31:19.362Z,1003.05
2019-01-13T01:32:19.384Z,1003.02
2019-01-13T01:33:25.862Z,1003.07
2019-01-13T01:34:19.430Z,1003.05
2019-01-13T01:35:19.458Z,1003.05
2019-01-13T01:36:19.481Z,1003.07
2019-01-13T01:37:19.503Z,1003.02
2019-01-13T01:38:19.528Z,1003.02
2019-01-13T01:39:19.550Z,1003.01
2019-01-13T01:40:19.576Z,1003.03
2019-01-13T01:41:19.601Z,1003.02
2019-01-13T01:42:19.622Z,1003.05
2019-01-13T01:43:19.647Z,1003.06
2019-01-13T01:44:19.669Z,1002.96
2019-01-13T01:45:19.698Z,1003.02
2019-01-13T01:46:19.720Z,1003.02
2019-01-13T01:47:19.745Z,1002.98
2019-01-13T01:48:19.765Z,1003.08
2019-01-13T01:49:19.791Z,1003.07
2019-01-13T01:50:19.817Z,1003.03
2019-01-13T01:51:19.840Z,1002.98
2019-01-13T01:52:19.866Z,1002.99
2019-01-13T01:53:19.889Z,1002.96
2019-01-13T01:54:19.911Z,1002.96
2019-01-13T01:55:20.288Z,1002.94
2019-01-13T01:56:19.958Z,1002.91
2019-01-13T01:57:19.985Z,1002.89
2019-01-13T01:58:20.010Z,1002.84
2019-01-13T01:59:20.034Z,1002.80
2019-01-13T02:00:20.059Z,1002.76
2019-01-13T02:01:20.081Z,1002.74
2019-01-13T02:02:20.102Z,1002.76
2019-01-13T02:03:20.128Z,1002.73
2019-01-13T02:04:20.151Z,1002.76
2019-01-13T02:05:20.190Z,1002.75
2019-01-13T02:06:20.202Z,1002.71
2019-01-13T02:07:20.281Z,1002.70
2019-01-13T02:08:20.246Z,1002.69
2019-01-13T02:09:20.272Z,1002.62
2019-01-13T02:10:20.294Z,1002.55
2019-01-13T02:11:20.318Z,1002.60
2019-01-13T02:12:20.344Z,1002.64
2019-01-13T02:13:20.366Z,1002.63
2019-01-13T02:14:20.392Z,1002.65
2019-01-13T02:15:20.414Z,1002.65
2019-01-13T02:16:20.440Z,1002.61
2019-01-13T02:17:20.464Z,1002.60
2019-01-13T02:18:20.488Z,1002.55
2019-01-13T02:19:20.509Z,1002.54
2019-01-13T02:20:20.532Z,1002.45
2019-01-13T02:21:20.561Z,1002.47
2019-01-13T02:22:20.580Z,1002.47
2019-01-13T02:23:20.607Z,1002.44
2019-01-13T02:24:20.628Z,1002.42
2019-01-13T02:25:20.655Z,1002.34
2019-01-13T02:26:20.679Z,1002.33
2019-01-13T02:27:20.736Z,1002.32
2019-01-13T02:28:20.726Z,1002.28
2019-01-13T02:29:20.750Z,1002.36
2019-01-13T02:30:20.778Z,1002.39
2019-01-13T02:31:20.795Z,1002.42
2019-01-13T02:32:20.823Z,1002.43
2019-01-13T02:33:20.847Z,1002.44
2019-01-13T02:34:20.869Z,1002.40
2019-01-13T02:35:20.893Z,1002.41
2019-01-13T02:36:20.916Z,1002.37
2019-01-13T02:37:20.947Z,1002.35
2019-01-13T02:38:20.962Z,1002.42
2019-01-13T02:39:20.989Z,1002.45
2019-01-13T02:40:21.011Z,1002.52
2019-01-13T02:41:21.034Z,1002.50
2019-01-13T02:42:21.059Z,1002.48
2019-01-13T02:43:21.085Z,1002.47
2019-01-13T02:44:21.107Z,1002.41
2019-01-13T02:45:21.131Z,1002.39
2019-01-13T02:46:21.153Z,1002.41
2019-01-13T02:47:21.179Z,1002.52
2019-01-13T02:48:21.202Z,1002.52
2019-01-13T02:49:21.225Z,1002.57
2019-01-13T02:50:21.248Z,1002.53
2019-01-13T02:51:21.272Z,1002.52
2019-01-13T02:52:21.301Z,1002.56
2019-01-13T02:53:21.320Z,1002.60
2019-01-13T02:54:21.343Z,1002.60
2019-01-13T02:55:21.370Z,1002.59
2019-01-13T02:56:21.390Z,1002.60
2019-01-13T02:57:21.413Z,1002.63
2019-01-13T02:58:21.438Z,1002.58
2019-01-13T02:59:21.463Z,1002.64
2019-01-13T03:00:21.499Z,1002.65
2019-01-13T03:01:21.512Z,1002.56
2019-01-13T03:02:21.534Z,1002.56
2019-01-13T03:03:21.561Z,1002.59
2019-01-13T03:04:21.586Z,1002.53
2019-01-13T03:05:21.615Z,1002.49
2019-01-13T03:06:21.631Z,1002.53
2019-01-13T03:07:21.659Z,1002.52
2019-01-13T03:08:21.680Z,1002.49
2019-01-13T03:09:21.710Z,1002.45
2019-01-13T03:10:21.725Z,1002.40
2019-01-13T03:11:21.752Z,1002.37
2019-01-13T03:12:21.775Z,1002.39
2019-01-13T03:13:21.801Z,1002.35
2019-01-13T03:14:21.823Z,1002.30
2019-01-13T03:15:21.848Z,1002.27
2019-01-13T03:16:21.869Z,1002.29
2019-01-13T03:17:21.894Z,1002.23
2019-01-13T03:18:21.922Z,1002.26
2019-01-13T03:19:21.941Z,1002.20
2019-01-13T03:20:21.973Z,1002.26
2019-01-13T03:21:21.990Z,1002.23
2019-01-13T03:22:22.017Z,1002.16
2019-01-13T03:23:22.037Z,1002.15
2019-01-13T03:24:22.066Z,1002.08
2019-01-13T03:25:22.085Z,1002.13
2019-01-13T03:26:22.110Z,1002.05
2019-01-13T03:27:22.133Z,1001.99
2019-01-13T03:28:22.154Z,1002.01
2019-01-13T03:29:22.180Z,1001.96
2019-01-13T03:30:22.206Z,1001.97
2019-01-13T03:31:22.234Z,1001.96
2019-01-13T03:32:22.281Z,1001.96
2019-01-13T03:33:22.302Z,1001.96
2019-01-13T03:34:22.300Z,1001.91
2019-01-13T03:35:22.324Z,1001.87
2019-01-13T03:36:22.348Z,1001.85
2019-01-13T03:37:22.372Z,1001.86
2019-01-13T03:38:22.397Z,1001.85
2019-01-13T03:39:22.466Z,1001.91
2019-01-13T03:40:22.444Z,1001.85
2019-01-13T03:41:22.472Z,1001.87
2019-01-13T03:42:22.489Z,1001.82
2019-01-13T03:43:22.516Z,1001.78
2019-01-13T03:44:22.543Z,1001.78
2019-01-13T03:45:22.560Z,1001.78
2019-01-13T03:46:22.587Z,1001.78
2019-01-13T03:47:22.612Z,1001.78
2019-01-13T03:48:22.638Z,1001.76
2019-01-13T03:49:22.658Z,1001.77
2019-01-13T03:50:22.685Z,1001.66
2019-01-13T03:51:22.708Z,1001.56
2019-01-13T03:52:22.730Z,1001.56
2019-01-13T03:53:22.754Z,1001.58
2019-01-13T03:54:22.788Z,1001.54
2019-01-13T03:55:22.812Z,1001.54
2019-01-13T03:56:22.842Z,1001.47
2019-01-13T03:57:22.850Z,1001.51
2019-01-13T03:58:22.871Z,1001.44
2019-01-13T03:59:22.898Z,1001.47
2019-01-13T04:00:22.922Z,1001.42
2019-01-13T04:01:22.943Z,1001.46
2019-01-13T04:02:22.969Z,1001.38
2019-01-13T04:03:22.993Z,1001.37
2019-01-13T04:04:23.017Z,1001.33
2019-01-13T04:05:23.044Z,1001.33
2019-01-13T04:06:23.064Z,1001.31
2019-01-13T04:07:23.088Z,1001.32
2019-01-13T04:08:23.109Z,1001.35
2019-01-13T04:09:23.133Z,1001.34
2019-01-13T04:10:23.161Z,1001.37
2019-01-13T04:11:23.181Z,1001.30
2019-01-13T04:12:23.208Z,1001.29
2019-01-13T04:13:23.238Z,1001.26
2019-01-13T04:14:23.256Z,1001.20
2019-01-13T04:15:23.279Z,1001.20
2019-01-13T04:16:23.303Z,1001.15
2019-01-13T04:17:23.328Z,1001.08
2019-01-13T04:18:23.349Z,1001.07
2019-01-13T04:19:23.375Z,1001.04
2019-01-13T04:20:23.398Z,1001.01
2019-01-13T04:21:23.421Z,1001.05
2019-01-13T04:22:23.447Z,1001.03
2019-01-13T04:23:23.473Z,1000.97
2019-01-13T04:24:23.492Z,1000.95
2019-01-13T04:25:23.517Z,1000.95
2019-01-13T04:26:23.541Z,1000.90
2019-01-13T04:27:23.570Z,1000.89
2019-01-13T04:28:23.591Z,1000.91
2019-01-13T04:29:23.616Z,1000.89
2019-01-13T04:30:23.640Z,1000.89
2019-01-13T04:31:26.837Z,1000.85
2019-01-13T04:32:23.686Z,1000.78
2019-01-13T04:33:23.709Z,1000.72
2019-01-13T04:34:23.735Z,1000.74
2019-01-13T04:35:23.756Z,1000.74
2019-01-13T04:36:23.784Z,1000.68
2019-01-13T04:37:23.805Z,1000.70
2019-01-13T04:38:23.832Z,1000.67
2019-01-13T04:39:23.854Z,1000.70
2019-01-13T04:40:23.877Z,1000.68
2019-01-13T04:41:23.902Z,1000.62
2019-01-13T04:42:23.923Z,1000.56
2019-01-13T04:43:23.950Z,1000.60
2019-01-13T04:44:23.973Z,1000.53
2019-01-13T04:45:24.002Z,1000.61
2019-01-13T04:46:24.020Z,1000.56
2019-01-13T04:47:24.049Z,1000.55
2019-01-13T04:48:24.070Z,1000.54
2019-01-13T04:49:24.092Z,1000.48
2019-01-13T04:50:24.116Z,1000.49
2019-01-13T04:51:24.142Z,1000.46
2019-01-13T04:52:24.166Z,1000.39
2019-01-13T04:53:24.189Z,1000.39
2019-01-13T04:54:24.214Z,1000.32
2019-01-13T04:55:24.240Z,1000.38
2019-01-13T04:56:24.259Z,1000.42
2019-01-13T04:57:24.285Z,1000.41
2019-01-13T04:58:24.307Z,1000.39
2019-01-13T04:59:24.335Z,1000.39
2019-01-13T05:00:24.355Z,1000.35
2019-01-13T05:01:24.381Z,1000.30
2019-01-13T05:02:24.405Z,1000.35
2019-01-13T05:03:24.434Z,1000.32
2019-01-13T05:04:24.456Z,1000.36
2019-01-13T05:05:24.477Z,1000.34
2019-01-13T05:06:24.502Z,1000.29
2019-01-13T05:07:24.523Z,1000.26
2019-01-13T05:08:24.547Z,1000.24
2019-01-13T05:09:24.572Z,1000.28
2019-01-13T05:10:24.599Z,1000.23
2019-01-13T05:11:24.622Z,1000.21
2019-01-13T05:12:24.642Z,1000.19
2019-01-13T05:13:24.667Z,1000.17
2019-01-13T05:14:24.688Z,1000.11
2019-01-13T05:15:24.717Z,1000.13
2019-01-13T05:16:24.736Z,1000.11
2019-01-13T05:17:24.765Z,1000.11
2019-01-13T05:18:24.787Z,1000.05
2019-01-13T05:19:24.811Z,1000.05
2019-01-13T05:20:24.833Z,1000.09
2019-01-13T05:21:24.856Z,999.98
2019-01-13T05:22:24.880Z,1000.05
2019-01-13T05:23:24.905Z,1000.03
2019-01-13T05:24:24.930Z,1000.04
2019-01-13T05:25:24.954Z,1000.05
2019-01-13T05:26:24.977Z,1000.08
2019-01-13T05:27:25.001Z,1000.03
2019-01-13T05:28:25.027Z,999.99
2019-01-13T05:29:25.050Z,1000.02
2019-01-13T05:30:25.071Z,999.94
2019-01-13T05:31:25.095Z,999.96
2019-01-13T05:32:25.122Z,999.98
2019-01-13T05:33:25.144Z,1000.00
2019-01-13T05:34:25.172Z,999.91
2019-01-13T05:35:25.193Z,999.88
2019-01-13T05:36:25.215Z,999.89
2019-01-13T05:37:25.243Z,999.88
2019-01-13T05:38:25.264Z,999.90
2019-01-13T05:39:25.291Z,999.91
2019-01-13T05:40:25.312Z,999.87
2019-01-13T05:41:25.335Z,999.91
2019-01-13T05:42:25.360Z,999.88
2019-01-13T05:43:25.384Z,999.94
2019-01-13T05:44:25.408Z,999.88
2019-01-13T05:45:25.537Z,999.93
2019-01-13T05:46:25.457Z,999.98
2019-01-13T05:47:25.482Z,999.93
2019-01-13T05:48:25.504Z,999.93
2019-01-13T05:49:25.531Z,999.84
2019-01-13T05:50:25.559Z,999.78
2019-01-13T05:51:25.576Z,999.78
2019-01-13T05:52:25.600Z,999.74
2019-01-13T05:53:25.623Z,999.69
2019-01-13T05:54:25.651Z,999.76
2019-01-13T05:55:25.676Z,999.75
2019-01-13T05:56:25.694Z,999.74
2019-01-13T05:57:25.722Z,999.74
2019-01-13T05:58:25.746Z,999.78
2019-01-13T05:59:25.768Z,999.75
2019-01-13T06:00:25.792Z,999.71
2019-01-13T06:01:25.817Z,999.67
2019-01-13T06:02:25.842Z,999.62
2019-01-13T06:03:25.866Z,999.62
2019-01-13T06:04:25.889Z,999.53
2019-01-13T06:05:25.914Z,999.53
2019-01-13T06:06:25.938Z,999.51
2019-01-13T06:07:25.960Z,999.49
2019-01-13T06:08:25.986Z,999.49
2019-01-13T06:09:26.010Z,999.47
2019-01-13T06:10:26.036Z,999.47
2019-01-13T06:11:26.057Z,999.47
2019-01-13T06:12:26.086Z,999.33
2019-01-13T06:13:26.105Z,999.36
2019-01-13T06:14:26.128Z,999.31
2019-01-13T06:15:26.152Z,999.34
2019-01-13T06:16:26.178Z,999.25
2019-01-13T06:17:26.200Z,999.24
2019-01-13T06:18:26.224Z,999.20
2019-01-13T06:19:26.251Z,999.17
2019-01-13T06:20:26.273Z,999.14
2019-01-13T06:21:26.297Z,999.16
2019-01-13T06:22:26.319Z,999.13
2019-01-13T06:23:26.345Z,999.06
2019-01-13T06:24:26.368Z,999.06
2019-01-13T06:25:26.394Z,999.07
2019-01-13T06:26:26.415Z,999.05
2019-01-13T06:27:26.441Z,999.02
2019-01-13T06:28:26.466Z,998.99
2019-01-13T06:29:26.489Z,998.98
2019-01-13T06:30:26.513Z,999.01
2019-01-13T06:31:26.538Z,998.94
2019-01-13T06:32:26.559Z,998.94
2019-01-13T06:33:26.583Z,998.97
2019-01-13T06:34:26.617Z,998.89
2019-01-13T06:35:26.634Z,998.95
2019-01-13T06:36:26.654Z,998.92
2019-01-13T06:37:26.681Z,998.89
2019-01-13T06:38:26.705Z,998.86
2019-01-13T06:39:26.729Z,998.87
2019-01-13T06:40:26.753Z,998.86
2019-01-13T06:41:26.776Z,998.81
2019-01-13T06:42:26.801Z,998.84
2019-01-13T06:43:26.823Z,998.84
2019-01-13T06:44:26.847Z,998.77
2019-01-13T06:45:26.871Z,998.78
2019-01-13T06:46:26.895Z,998.75
2019-01-13T06:47:26.924Z,998.67
2019-01-13T06:48:26.945Z,998.70
2019-01-13T06:49:26.968Z,998.67
2019-01-13T06:50:26.992Z,998.63
2019-01-13T06:51:27.015Z,998.69
2019-01-13T06:52:27.038Z,998.66
2019-01-13T06:53:27.062Z,998.64
2019-01-13T06:54:27.088Z,998.59
2019-01-13T06:55:27.110Z,998.62
2019-01-13T06:56:27.136Z,998.59
2019-01-13T06:57:27.161Z,998.55
2019-01-13T06:58:27.188Z,998.60
2019-01-13T06:59:27.206Z,998.62
2019-01-13T07:00:27.233Z,998.62
2019-01-13T07:01:27.256Z,998.56
2019-01-13T07:02:27.278Z,998.55
2019-01-13T07:03:27.306Z,998.53
2019-01-13T07:04:27.328Z,998.56
2019-01-13T07:05:27.349Z,998.52
2019-01-13T07:06:27.377Z,998.56
2019-01-13T07:07:27.400Z,998.55
2019-01-13T07:08:27.425Z,998.51
2019-01-13T07:09:27.446Z,998.50
2019-01-13T07:10:27.470Z,998.37
2019-01-13T07:11:27.496Z,998.46
2019-01-13T07:12:27.518Z,998.45
2019-01-13T07:13:27.544Z,998.36
2019-01-13T07:14:27.568Z,998.37
2019-01-13T07:15:27.590Z,998.38
2019-01-13T07:16:27.616Z,998.42
2019-01-13T07:17:27.640Z,998.39
2019-01-13T07:18:27.664Z,998.36
2019-01-13T07:19:27.688Z,998.31
2019-01-13T07:20:27.712Z,998.34
2019-01-13T07:21:27.734Z,998.32
2019-01-13T07:22:27.761Z,998.31
2019-01-13T07:23:27.782Z,998.33
2019-01-13T07:24:27.805Z,998.29
2019-01-13T07:25:27.832Z,998.26
2019-01-13T07:26:27.853Z,998.22
2019-01-13T07:27:27.879Z,998.15
2019-01-13T07:28:27.903Z,998.17
2019-01-13T07:29:27.929Z,998.21
2019-01-13T07:30:27.952Z,998.14
2019-01-13T07:31:27.974Z,998.08
2019-01-13T07:32:27.999Z,998.01
2019-01-13T07:33:28.021Z,998.03
2019-01-13T07:34:28.049Z,998.03
2019-01-13T07:35:28.069Z,997.95
2019-01-13T07:36:28.095Z,998.00
2019-01-13T07:37:28.117Z,998.04
2019-01-13T07:38:28.152Z,998.02
2019-01-13T07:39:28.167Z,998.03
2019-01-13T07:40:28.191Z,997.99
2019-01-13T07:41:28.213Z,997.95
2019-01-13T07:42:28.240Z,997.94
2019-01-13T07:43:28.269Z,997.90
2019-01-13T07:44:28.288Z,997.88
2019-01-13T07:45:28.311Z,997.87
2019-01-13T07:46:28.339Z,997.88
2019-01-13T07:47:28.358Z,997.90
2019-01-13T07:48:28.383Z,997.92
2019-01-13T07:49:28.405Z,997.87
2019-01-13T07:50:28.430Z,997.87
2019-01-13T07:51:28.454Z,997.89
2019-01-13T07:52:28.477Z,997.88
2019-01-13T07:53:28.504Z,997.84
2019-01-13T07:54:28.525Z,997.84
2019-01-13T07:55:28.554Z,997.82
2019-01-13T07:56:28.575Z,997.80
2019-01-13T07:57:28.599Z,997.71
2019-01-13T07:58:28.625Z,997.71
2019-01-13T07:59:28.646Z,997.69
2019-01-13T08:00:28.669Z,997.67
2019-01-13T08:01:28.697Z,997.58
2019-01-13T08:02:28.721Z,997.69
2019-01-13T08:03:28.745Z,997.62
2019-01-13T08:04:28.770Z,997.65
2019-01-13T08:05:28.790Z,997.61
2019-01-13T08:06:28.816Z,997.57
2019-01-13T08:07:28.838Z,997.56
2019-01-13T08:08:28.864Z,997.59
2019-01-13T08:09:28.886Z,997.66
2019-01-13T08:10:28.914Z,997.60
2019-01-13T08:11:28.936Z,997.63
2019-01-13T08:12:28.961Z,997.63
2019-01-13T08:13:28.982Z,997.67
2019-01-13T08:14:29.007Z,997.66
2019-01-13T08:15:29.034Z,997.58
2019-01-13T08:16:29.060Z,997.59
2019-01-13T08:17:29.082Z,997.63
2019-01-13T08:18:29.103Z,997.65
2019-01-13T08:19:29.130Z,997.62
2019-01-13T08:20:29.151Z,997.65
2019-01-13T08:21:29.182Z,997.64
2019-01-13T08:22:29.202Z,997.53
2019-01-13T08:23:29.224Z,997.56
2019-01-13T08:24:29.247Z,997.50
2019-01-13T08:25:29.281Z,997.42
2019-01-13T08:26:29.299Z,997.45
2019-01-13T08:27:29.323Z,997.46
2019-01-13T08:28:29.346Z,997.54
2019-01-13T08:29:29.368Z,997.49
2019-01-13T08:30:29.395Z,997.46
2019-01-13T08:31:29.418Z,997.47
2019-01-13T08:32:29.744Z,997.39
2019-01-13T08:33:29.466Z,997.51
2019-01-13T08:34:29.491Z,997.56
2019-01-13T08:35:29.615Z,997.53
2019-01-13T08:36:29.540Z,997.53
2019-01-13T08:37:29.563Z,997.50
2019-01-13T08:38:29.593Z,997.36
2019-01-13T08:39:29.612Z,997.35
2019-01-13T08:40:29.636Z,997.35
2019-01-13T08:41:29.664Z,997.30
2019-01-13T08:42:29.685Z,997.36
2019-01-13T08:43:29.709Z,997.33
2019-01-13T08:44:29.735Z,997.32
2019-01-13T08:45:29.757Z,997.22
2019-01-13T08:46:29.782Z,997.27
2019-01-13T08:47:29.809Z,997.23
2019-01-13T08:48:29.833Z,997.21
2019-01-13T08:49:29.861Z,997.16
2019-01-13T08:50:29.880Z,997.05
2019-01-13T08:51:29.904Z,997.03
2019-01-13T08:52:29.930Z,997.04
2019-01-13T08:53:29.955Z,997.05
2019-01-13T08:54:29.977Z,997.09
2019-01-13T08:55:30.002Z,997.13
2019-01-13T08:56:30.026Z,997.03
2019-01-13T08:57:30.052Z,997.02
2019-01-13T08:58:30.075Z,997.02
2019-01-13T08:59:30.105Z,997.01
2019-01-13T09:00:30.126Z,996.94
2019-01-13T09:01:30.166Z,996.96
2019-01-13T09:02:32.306Z,996.97
2019-01-13T09:03:30.198Z,996.98
2019-01-13T09:04:30.223Z,996.92
2019-01-13T09:05:30.249Z,996.92
2019-01-13T09:06:30.274Z,996.92
2019-01-13T09:07:30.295Z,996.92
2019-01-13T09:08:30.319Z,996.92
2019-01-13T09:09:30.344Z,996.80
2019-01-13T09:10:30.368Z,996.81
2019-01-13T09:11:30.393Z,996.81
2019-01-13T09:12:30.419Z,996.82
2019-01-13T09:13:30.444Z,996.83
2019-01-13T09:14:30.466Z,996.83
2019-01-13T09:15:30.493Z,996.83
2019-01-13T09:16:30.519Z,996.89
2019-01-13T09:17:30.543Z,996.84
2019-01-13T09:18:30.565Z,996.81
2019-01-13T09:19:30.594Z,996.75
2019-01-13T09:20:30.616Z,996.75
2019-01-13T09:21:30.642Z,996.69
2019-01-13T09:22:30.663Z,996.71
2019-01-13T09:23:30.690Z,996.70
2019-01-13T09:24:30.712Z,996.70
2019-01-13T09:25:30.736Z,996.65
2019-01-13T09:26:30.764Z,996.64
2019-01-13T09:27:30.789Z,996.63
2019-01-13T09:28:30.811Z,996.62
2019-01-13T09:29:30.838Z,996.64
2019-01-13T09:30:30.862Z,996.69
2019-01-13T09:31:30.885Z,996.63
2019-01-13T09:32:30.910Z,996.68
2019-01-13T09:33:30.939Z,996.62
2019-01-13T09:34:30.959Z,996.58
2019-01-13T09:35:30.985Z,996.59
2019-01-13T09:36:31.010Z,996.57
2019-01-13T09:37:31.036Z,996.47
2019-01-13T09:38:31.062Z,996.51
2019-01-13T09:39:31.087Z,996.46
2019-01-13T09:40:31.110Z,996.46
2019-01-13T09:41:31.134Z,996.47
2019-01-13T09:42:31.157Z,996.42
2019-01-13T09:43:31.185Z,996.41
2019-01-13T09:44:31.610Z,996.45
2019-01-13T09:45:31.231Z,996.44
2019-01-13T09:46:31.256Z,996.47
2019-01-13T09:47:31.582Z,996.45
2019-01-13T09:48:31.308Z,996.46
2019-01-13T09:49:31.332Z,996.44
2019-01-13T09:50:31.560Z,996.46
2019-01-13T09:51:31.381Z,996.42
2019-01-13T09:52:31.407Z,996.49
2019-01-13T09:53:31.583Z,996.49
2019-01-13T09:54:31.456Z,996.42
2019-01-13T09:55:31.482Z,996.49
2019-01-13T09:56:31.504Z,996.50
2019-01-13T09:57:31.529Z,996.51
2019-01-13T09:58:31.556Z,996.56
2019-01-13T09:59:31.587Z,996.52
2019-01-13T10:00:31.603Z,996.50
2019-01-13T10:01:31.631Z,996.52
2019-01-13T10:02:31.656Z,996.49
2019-01-13T10:03:31.679Z,996.56
2019-01-13T10:04:31.705Z,996.52
2019-01-13T10:05:31.731Z,996.49
2019-01-13T10:06:31.757Z,996.48
2019-01-13T10:07:31.779Z,996.46
2019-01-13T10:08:31.804Z,996.44
2019-01-13T10:09:31.828Z,996.40
2019-01-13T10:10:31.856Z,996.42
2019-01-13T10:11:31.878Z,996.42
2019-01-13T10:12:31.903Z,996.35
2019-01-13T10:13:31.930Z,996.38
2019-01-13T10:14:31.955Z,996.37
2019-01-13T10:15:31.978Z,996.39
2019-01-13T10:16:32.002Z,996.36
2019-01-13T10:17:32.028Z,996.36
2019-01-13T10:18:32.055Z,996.36
2019-01-13T10:19:32.078Z,996.26
2019-01-13T10:20:32.104Z,996.31
2019-01-13T10:21:32.128Z,996.26
2019-01-13T10:22:32.155Z,996.17
2019-01-13T10:23:32.180Z,996.17
2019-01-13T10:24:32.202Z,996.12
2019-01-13T10:25:32.228Z,996.08
2019-01-13T10:26:32.253Z,996.04
2019-01-13T10:27:32.278Z,996.03
2019-01-13T10:28:32.303Z,996.03
2019-01-13T10:29:32.329Z,995.96
2019-01-13T10:30:32.358Z,995.95
2019-01-13T10:31:32.383Z,995.97
2019-01-13T10:32:32.405Z,995.99
2019-01-13T10:33:32.430Z,995.95
2019-01-13T10:34:32.455Z,995.92
2019-01-13T10:35:32.482Z,995.90
2019-01-13T10:36:32.503Z,995.92
2019-01-13T10:37:32.528Z,995.89
2019-01-13T10:38:32.555Z,995.91
2019-01-13T10:39:32.584Z,995.91
2019-01-13T10:40:32.603Z,995.94
2019-01-13T10:41:32.629Z,995.85
2019-01-13T10:42:32.656Z,995.84
2019-01-13T10:43:32.681Z,995.82
2019-01-13T10:44:32.705Z,995.78
2019-01-13T10:45:32.731Z,995.79
2019-01-13T10:46:32.754Z,995.75
2019-01-13T10:47:32.781Z,995.75
2019-01-13T10:48:32.806Z,995.70
2019-01-13T10:49:32.829Z,995.68
2019-01-13T10:50:32.856Z,995.72
2019-01-13T10:51:32.883Z,995.70
2019-01-13T10:52:32.936Z,995.67
2019-01-13T10:53:32.930Z,995.68
2019-01-13T10:54:32.954Z,995.71
2019-01-13T10:55:32.982Z,995.69
2019-01-13T10:56:33.007Z,995.68
2019-01-13T10:57:33.031Z,995.62
2019-01-13T10:58:33.055Z,995.65
2019-01-13T10:59:33.080Z,995.66
2019-01-13T11:00:33.106Z,995.59
2019-01-13T11:01:33.131Z,995.48
2019-01-13T11:02:33.156Z,995.61
2019-01-13T11:03:33.183Z,995.59
2019-01-13T11:04:33.205Z,995.50
2019-01-13T11:05:33.231Z,995.56
2019-01-13T11:06:33.258Z,995.57
2019-01-13T11:07:33.284Z,995.56
2019-01-13T11:08:33.307Z,995.56
2019-01-13T11:09:33.333Z,995.50
2019-01-13T11:10:33.362Z,995.42
2019-01-13T11:11:33.384Z,995.44
2019-01-13T11:12:33.406Z,995.34
2019-01-13T11:13:33.432Z,995.35
2019-01-13T11:14:33.457Z,995.31
2019-01-13T11:15:33.482Z,995.35
2019-01-13T11:16:33.507Z,995.29
2019-01-13T11:17:33.532Z,995.34
2019-01-13T11:18:33.558Z,995.32
2019-01-13T11:19:33.587Z,995.29
2019-01-13T11:20:33.608Z,995.20
2019-01-13T11:21:33.633Z,995.21
2019-01-13T11:22:33.664Z,995.19
2019-01-13T11:23:33.683Z,995.19
2019-01-13T11:24:33.709Z,995.15
2019-01-13T11:25:33.734Z,995.25
2019-01-13T11:26:33.762Z,995.24
2019-01-13T11:27:33.786Z,995.23
2019-01-13T11:28:33.811Z,995.21
2019-01-13T11:29:33.838Z,995.11
2019-01-13T11:30:33.860Z,995.08
2019-01-13T11:31:33.885Z,995.10
2019-01-13T11:32:33.910Z,995.07
2019-01-13T11:33:33.937Z,995.06
2019-01-13T11:34:33.962Z,995.00
2019-01-13T11:35:33.992Z,995.01
2019-01-13T11:36:34.012Z,995.00
2019-01-13T11:37:34.038Z,994.97
2019-01-13T11:38:34.061Z,994.93
2019-01-13T11:39:34.087Z,994.94
2019-01-13T11:40:34.117Z,994.94
2019-01-13T11:41:34.136Z,994.89
2019-01-13T11:42:34.162Z,994.85
2019-01-13T11:43:34.187Z,994.76
2019-01-13T11:44:34.214Z,994.75
2019-01-13T11:45:34.241Z,994.76
2019-01-13T11:46:34.266Z,994.79
2019-01-13T11:47:34.315Z,994.76
2019-01-13T11:48:34.315Z,994.75
2019-01-13T11:49:34.340Z,994.78
2019-01-13T11:50:34.364Z,994.69
2019-01-13T11:51:34.389Z,994.73
2019-01-13T11:52:34.413Z,994.72
2019-01-13T11:53:34.441Z,994.58
2019-01-13T11:54:34.468Z,994.59
2019-01-13T11:55:34.490Z,994.50
2019-01-13T11:56:34.517Z,994.48
2019-01-13T11:57:34.543Z,994.47
2019-01-13T11:58:34.567Z,994.50
2019-01-13T11:59:34.590Z,994.47
2019-01-13T12:00:34.615Z,994.58
2019-01-13T12:01:34.641Z,994.52
2019-01-13T12:02:34.668Z,994.56
2019-01-13T12:03:34.702Z,994.59
2019-01-13T12:04:34.719Z,994.55
2019-01-13T12:05:34.741Z,994.49
2019-01-13T12:06:34.767Z,994.52
2019-01-13T12:07:34.792Z,994.44
2019-01-13T12:08:34.819Z,994.44
2019-01-13T12:09:34.842Z,994.40
2019-01-13T12:10:34.869Z,994.40
2019-01-13T12:11:34.893Z,994.30
2019-01-13T12:12:34.920Z,994.31
2019-01-13T12:13:34.947Z,994.32
2019-01-13T12:14:34.968Z,994.32
2019-01-13T12:15:34.994Z,994.32
2019-01-13T12:16:35.021Z,994.36
2019-01-13T12:17:35.045Z,994.27
2019-01-13T12:18:40.497Z,994.31